Saint George Island, Florida
Current Conditions -  °F | °C
As of 5:09 AM on Monday 22 Dec 2014 (Local Time) from KAAF Reporting Station
Moderate Fog Moderate Fog  
Wind Chill: 18°   Ceiling: 200
Heat Index: 18°   Visibility: 0.25mi
Dew Point: 16°   Wind: 6mph
Humidity: 90%   Direction: 100°E
Pressure: 29.92"   Gusts: NA
Location:  29.8852°N, 84.8748°W
Report Text: KAAF 221009Z AUTO 10005KT 1/4SM FG VV002 18/16 A2992 RMK AO2 RAE0957 P0000 T01780161 TSNO
Loading
Personal Weather Stations






























Interactive Weather Map New forecast layout! Learn more

10-Day Weather Forecast

Advertisements
Track Severe Weather on mobile